Time;durP1;ratioP1;P1;durP2;ratioP2;P2;SDS_P1;SDS_P2;PMS_P1;PMS_P2;Temp;Humidity;BMP_temperature;BMP_pressure;BME280_temperature;BME280_humidity;BME280_pressure;Samples;Min_cycle;Max_cycle;Signal;HPM_P1;HPM_P2
2021/11/16 00:02:07;;;;;;;5.05;3.37;;;;;;;0.03;64.98;102484.98;1758392;81;21878;-68
2021/11/16 00:04:36;;;;;;;6.42;4.87;;;;;;;0.01;65.12;102485.42;1774529;80;20993;-68
2021/11/16 00:07:05;;;;;;;5.47;4.35;;;;;;;-0.01;65.21;102495.80;1762752;80;21446;-68
2021/11/16 00:09:33;;;;;;;7.15;4.37;;;;;;;0.01;65.19;102490.63;1789720;80;21024;-68
2021/11/16 00:11:59;;;;;;;5.95;4.30;;;;;;;0.01;65.20;102492.78;1789655;80;20984;-68
2021/11/16 00:14:31;;;;;;;7.08;4.45;;;;;;;-0.01;65.22;102489.30;1780278;80;21835;-68
2021/11/16 00:16:58;;;;;;;6.90;4.70;;;;;;;-0.01;65.32;102491.90;1774672;80;20968;-68
2021/11/16 00:19:27;;;;;;;5.12;3.90;;;;;;;-0.03;65.34;102484.11;1777719;80;20952;-68
2021/11/16 00:21:54;;;;;;;7.20;4.55;;;;;;;-0.05;65.34;102495.38;1776075;80;21631;-68
2021/11/16 00:24:25;;;;;;;7.70;4.08;;;;;;;-0.07;65.34;102498.42;1789498;80;21419;-68
2021/11/16 00:26:48;;;;;;;5.75;4.40;;;;;;;-0.11;65.41;102491.48;1780684;80;21841;-68
2021/11/16 00:29:15;;;;;;;5.08;4.05;;;;;;;-0.11;65.47;102492.34;1758233;81;21052;-68
2021/11/16 00:31:41;;;;;;;7.12;4.85;;;;;;;-0.13;65.58;102490.19;1758316;81;21012;-68
2021/11/16 00:34:08;;;;;;;5.85;4.47;;;;;;;-0.12;65.69;102486.73;1766505;80;20954;-68
2021/11/16 00:36:34;;;;;;;5.78;4.12;;;;;;;-0.11;65.76;102495.38;1765481;80;20993;-68
2021/11/16 00:39:01;;;;;;;6.62;4.70;;;;;;;-0.16;65.80;102494.10;1758359;81;21824;-68
2021/11/16 00:41:28;;;;;;;6.72;4.80;;;;;;;-0.19;65.83;102489.33;1787489;80;20976;-68
2021/11/16 00:43:54;;;;;;;6.70;4.92;;;;;;;-0.18;65.96;102488.05;1789444;80;20973;-68
2021/11/16 00:46:21;;;;;;;7.17;4.80;;;;;;;-0.16;66.01;102491.94;1789734;80;21401;-68
2021/11/16 17:39:59;;;;;;;63.10;33.13;;;;;;;-1.75;59.47;101919.13;1746881;81;21017;-69
2021/11/16 17:42:25;;;;;;;66.37;36.35;;;;;;;-1.83;59.67;101915.73;1740084;81;21128;-70
2021/11/16 17:44:52;;;;;;;75.95;40.23;;;;;;;-1.86;59.85;101923.48;1755731;81;21855;-68
2021/11/16 17:47:18;;;;;;;66.07;37.93;;;;;;;-1.90;59.92;101911.44;1742799;80;21057;-70
2021/11/16 17:49:45;;;;;;;65.90;35.05;;;;;;;-1.93;60.09;101914.91;1816410;77;21051;-69
2021/11/16 17:52:12;;;;;;;72.75;38.30;;;;;;;-1.95;60.13;101914.45;1822075;78;20996;-70
2021/11/16 17:54:40;;;;;;;73.10;38.15;;;;;;;-2.00;60.19;101913.19;1827892;78;21064;-69
2021/11/16 17:57:06;;;;;;;72.80;36.17;;;;;;;-2.03;60.33;101915.77;1828422;78;22470;-69
2021/11/16 17:59:33;;;;;;;69.50;37.00;;;;;;;-2.06;60.47;101918.37;1821457;78;21028;-69
2021/11/16 18:02:00;;;;;;;69.90;37.28;;;;;;;-2.09;60.54;101913.22;1803575;79;20989;-69
2021/11/16 18:04:42;;;;;;;75.47;40.83;;;;;;;-2.12;60.68;101915.83;1805293;78;21039;-69
2021/11/16 18:09:56;;;;;;;80.62;44.48;;;;;;;-2.19;60.92;101906.34;1815045;77;22624;-68
2021/11/16 18:12:27;;;;;;;83.52;45.30;;;;;;;-2.22;61.00;101897.27;1820120;78;20996;-68
2021/11/16 18:14:57;;;;;;;86.08;46.63;;;;;;;-2.24;61.08;101897.71;1817635;78;21079;-69
2021/11/16 18:17:24;;;;;;;92.22;50.78;;;;;;;-2.26;61.12;101899.45;1744923;81;21044;-69
2021/11/16 18:19:52;;;;;;;97.05;55.40;;;;;;;-2.28;61.20;101899.45;1803549;79;21019;-69
2021/11/16 18:22:18;;;;;;;108.72;61.88;;;;;;;-2.31;61.27;101910.69;1815385;78;21782;-70
2021/11/16 18:24:45;;;;;;;123.80;70.50;;;;;;;-2.34;61.34;101899.45;1760716;81;21004;-70
2021/11/16 18:27:13;;;;;;;126.82;71.02;;;;;;;-2.35;61.46;101898.59;1810182;78;21605;-69
2021/11/16 18:29:40;;;;;;;121.60;70.20;;;;;;;-2.35;61.54;101895.15;1755723;81;21060;-70
2021/11/16 18:32:08;;;;;;;128.32;68.97;;;;;;;-2.38;61.74;101897.32;1833720;78;20940;-72
2021/11/16 18:34:35;;;;;;;119.70;68.52;;;;;;;-2.41;61.78;101898.63;1815347;78;22468;-72
2021/11/16 18:37:01;;;;;;;133.52;70.22;;;;;;;-2.43;61.85;101895.16;1807912;78;20908;-70
2021/11/16 18:39:32;;;;;;;142.80;77.45;;;;;;;-2.44;61.91;101900.34;1825503;77;21028;-72
2021/11/16 18:42:09;;;;;;;154.50;82.45;;;;;;;-2.45;62.02;101900.77;1829602;78;21017;-71
2021/11/16 18:44:36;;;;;;;149.00;78.22;;;;;;;-2.46;62.12;101897.76;1830620;77;21454;-70
2021/11/16 18:47:11;;;;;;;146.22;79.22;;;;;;;-2.47;62.13;101896.03;1830828;77;22393;-69
2021/11/16 18:49:33;;;;;;;129.40;70.22;;;;;;;-2.49;62.28;101895.62;1829055;78;20985;-69
2021/11/16 18:51:59;;;;;;;120.90;62.73;;;;;;;-2.51;62.45;101889.56;1809947;77;20985;-69
2021/11/16 18:54:26;;;;;;;121.75;59.45;;;;;;;-2.53;62.60;101898.63;1825283;78;21043;-69
2021/11/16 18:57:03;;;;;;;109.42;55.52;;;;;;;-2.55;62.65;101895.19;1820904;78;21004;-68
2021/11/16 18:59:29;;;;;;;114.10;56.75;;;;;;;-2.56;62.66;101900.36;1806882;78;21856;-68
2021/11/16 19:01:56;;;;;;;109.25;54.67;;;;;;;-2.58;62.69;101896.92;1798453;79;20998;-67
2021/11/16 19:04:24;;;;;;;106.30;53.68;;;;;;;-2.61;62.67;101895.17;1825510;78;20996;-68
2021/11/16 19:06:52;;;;;;;109.65;54.13;;;;;;;-2.63;62.71;101889.15;1808955;79;21012;-68
2021/11/16 19:09:19;;;;;;;114.45;55.73;;;;;;;-2.63;62.82;101890.44;1808974;79;20993;-68
2021/11/16 19:11:46;;;;;;;110.28;52.53;;;;;;;-2.63;62.87;101891.30;1799090;78;21867;-69
2021/11/16 19:14:23;;;;;;;107.97;53.42;;;;;;;-2.63;62.88;101886.56;1796523;78;21555;-69
2021/11/16 19:17:00;;;;;;;105.90;50.20;;;;;;;-2.66;62.93;101886.58;1818410;78;21382;-69
2021/11/16 19:19:28;;;;;;;107.50;50.45;;;;;;;-2.67;62.96;101892.19;1826489;78;21094;-69
2021/11/16 19:22:03;;;;;;;103.38;49.67;;;;;;;-2.68;63.05;101888.31;1805944;78;20985;-69
2021/11/16 19:24:25;;;;;;;119.85;60.28;;;;;;;-2.71;63.08;101880.53;1810570;78;21830;-69
2021/11/16 19:26:52;;;;;;;105.80;54.58;;;;;;;-2.73;63.07;101881.83;1807220;78;20997;-69
2021/11/16 19:29:29;;;;;;;92.40;47.43;;;;;;;-2.74;63.03;101881.83;1798417;78;21037;-69
2021/11/16 19:32:06;;;;;;;90.70;46.48;;;;;;;-2.74;63.01;101883.12;1816979;78;21012;-69
2021/11/16 19:34:33;;;;;;;93.85;49.03;;;;;;;-2.76;62.98;101879.69;1804570;78;20993;-70
2021/11/16 19:37:22;;;;;;;79.35;42.67;;;;;;;-2.78;62.98;101880.13;1815576;78;21821;-68
2021/11/16 19:39:46;;;;;;;80.70;41.18;;;;;;;-2.80;62.94;101878.80;1808813;78;29060;-68
2021/11/16 19:42:12;;;;;;;73.80;37.95;;;;;;;-2.82;62.98;101870.63;1806115;78;21460;-68
2021/11/16 19:44:41;;;;;;;75.62;37.03;;;;;;;-2.86;62.98;101873.66;1803552;78;21417;-68
2021/11/16 19:47:08;;;;;;;73.40;36.40;;;;;;;-2.89;62.96;101869.36;1828185;78;20981;-68
2021/11/16 19:49:34;;;;;;;79.80;39.33;;;;;;;-2.92;63.03;101875.80;1831145;78;22436;-68
2021/11/16 19:52:01;;;;;;;78.07;38.58;;;;;;;-2.96;63.08;101876.67;1832060;77;20950;-69
2021/11/16 19:54:27;;;;;;;72.40;37.78;;;;;;;-2.97;63.14;101881.84;1825036;77;21032;-70
2021/11/16 19:56:54;;;;;;;72.53;37.20;;;;;;;-2.98;63.12;101877.55;1799275;79;21592;-69
2021/11/16 19:59:21;;;;;;;72.72;37.85;;;;;;;-3.03;63.11;101876.23;1797838;79;20946;-67
2021/11/16 20:01:48;;;;;;;71.20;38.78;;;;;;;-3.05;63.19;101866.33;1731274;81;21811;-67
2021/11/16 20:04:14;;;;;;;73.05;38.13;;;;;;;-3.04;63.17;101864.61;1746185;81;21405;-68
2021/11/16 20:06:41;;;;;;;70.60;37.93;;;;;;;-3.06;63.17;101865.91;1750927;81;20954;-68
2021/11/16 20:09:12;;;;;;;72.70;38.42;;;;;;;-3.09;63.25;101865.88;1769102;79;20964;-68
2021/11/16 20:11:41;;;;;;;80.28;41.28;;;;;;;-3.11;63.31;101866.31;1809640;78;21487;-68
2021/11/16 20:14:08;;;;;;;84.50;41.80;;;;;;;-3.13;63.29;101864.17;1815260;78;21848;-68
2021/11/16 20:16:36;;;;;;;89.60;42.08;;;;;;;-3.20;63.29;101869.75;1831984;78;20926;-66
2021/11/16 20:19:04;;;;;;;85.47;39.95;;;;;;;-3.25;63.34;101864.16;1818386;78;20951;-66
2021/11/16 20:21:31;;;;;;;73.02;38.17;;;;;;;-3.29;63.46;101866.30;1805082;78;20988;-69
2021/11/16 20:23:58;;;;;;;68.75;33.75;;;;;;;-3.30;63.55;101861.99;1811987;78;21028;-68
2021/11/16 20:26:26;;;;;;;70.42;40.58;;;;;;;-3.31;63.71;101852.09;1800814;77;21845;-70
2021/11/16 20:28:59;;;;;;;64.17;34.18;;;;;;;-3.34;63.80;101860.28;1815560;78;20969;-70
2021/11/16 20:31:27;;;;;;;57.25;30.88;;;;;;;-3.34;63.93;101860.28;1808001;78;20977;-68
2021/11/16 20:33:58;;;;;;;60.10;31.07;;;;;;;-3.34;63.96;101863.72;1812540;78;21421;-68
2021/11/16 20:36:19;;;;;;;52.43;28.98;;;;;;;-3.36;63.94;101864.59;1826180;77;20984;-69
2021/11/16 20:39:01;;;;;;;72.37;34.95;;;;;;;-3.36;64.00;101865.88;1816025;78;21832;-69
2021/11/16 20:41:32;;;;;;;109.22;48.78;;;;;;;-3.39;64.18;101861.55;1828379;77;20960;-70
2021/11/16 20:43:57;;;;;;;122.37;54.38;;;;;;;-3.41;64.27;101862.41;1828028;77;20969;-69
2021/11/16 20:59:30;;;;;;;95.75;46.00;;;;;;;-3.46;64.30;101847.78;1818458;78;20945;-69
2021/11/16 21:02:03;;;;;;;96.05;46.00;;;;;;;-3.47;64.27;101842.61;1841454;77;20900;-69
2021/11/16 21:04:30;;;;;;;101.87;45.95;;;;;;;-3.52;64.27;101840.01;1843508;77;21810;-69
2021/11/16 21:06:57;;;;;;;92.22;44.20;;;;;;;-3.53;64.30;101839.58;1821883;77;21030;-68
2021/11/16 21:09:24;;;;;;;83.80;39.10;;;;;;;-3.55;64.36;101843.89;1812421;77;20936;-68
2021/11/16 21:11:55;;;;;;;68.28;35.78;;;;;;;-3.57;64.44;101835.28;1818832;79;21091;-68
2021/11/16 21:14:25;;;;;;;75.37;36.83;;;;;;;-3.59;64.41;101827.94;1818513;77;21067;-68
2021/11/16 21:16:52;;;;;;;78.95;38.28;;;;;;;-3.62;64.42;101821.48;1820740;77;21869;-68
2021/11/16 21:19:18;;;;;;;77.80;40.73;;;;;;;-3.63;64.45;101826.64;1830109;77;20972;-69
2021/11/16 21:21:46;;;;;;;83.58;41.08;;;;;;;-3.65;64.50;101831.81;1819633;77;20995;-69
2021/11/16 21:24:15;;;;;;;83.95;42.35;;;;;;;-3.66;64.53;101824.06;1809731;77;20972;-69
2021/11/16 21:26:41;;;;;;;90.90;43.52;;;;;;;-3.68;64.52;101825.33;1828777;77;20945;-68
2021/11/16 21:29:09;;;;;;;91.30;44.60;;;;;;;-3.70;64.56;101818.02;1823851;77;22148;-68
2021/11/16 21:31:37;;;;;;;97.65;47.55;;;;;;;-3.70;64.63;101823.18;1831364;77;20953;-68
2021/11/16 21:34:04;;;;;;;98.85;48.13;;;;;;;-3.71;64.62;101824.47;1814394;77;20940;-68
2021/11/16 21:36:34;;;;;;;108.07;52.17;;;;;;;-3.73;64.59;101820.59;1817259;77;21245;-69
2021/11/16 21:39:03;;;;;;;116.57;56.05;;;;;;;-3.74;64.63;101821.46;1842533;77;21085;-68
2021/11/16 21:41:31;;;;;;;128.57;58.55;;;;;;;-3.75;64.68;101819.31;1830988;77;21872;-68
2021/11/16 21:44:00;;;;;;;125.02;54.90;;;;;;;-3.72;64.70;101821.46;1831707;78;21012;-68
2021/11/16 21:46:32;;;;;;;137.35;60.78;;;;;;;-3.70;64.76;101825.76;1829800;77;20954;-69
2021/11/16 21:48:59;;;;;;;133.43;60.67;;;;;;;-3.68;64.74;101818.02;1828657;78;21060;-69
2021/11/16 21:51:26;;;;;;;138.28;63.48;;;;;;;-3.68;64.84;101816.29;1831855;78;21598;-68
2021/11/16 21:53:52;;;;;;;146.62;66.40;;;;;;;-3.66;64.78;101817.61;1789330;78;22185;-69
2021/11/16 21:56:19;;;;;;;158.05;73.50;;;;;;;-3.67;64.85;101812.84;1768047;81;20976;-70
2021/11/16 21:58:46;;;;;;;156.50;73.47;;;;;;;-3.65;64.96;101812.45;1793246;78;21070;-69
2021/11/16 22:01:15;;;;;;;151.50;70.75;;;;;;;-3.64;65.07;101812.87;1808393;78;20954;-68
2021/11/16 22:03:43;;;;;;;152.65;73.75;;;;;;;-3.66;65.08;101808.58;1809584;78;20997;-68
2021/11/16 22:06:21;;;;;;;163.70;76.60;;;;;;;-3.68;65.22;101803.37;1814026;78;21802;-69
2021/11/16 22:08:49;;;;;;;178.55;81.42;;;;;;;-3.68;65.39;101801.23;1800758;78;21396;-67
2021/11/16 22:13:46;;;;;;;167.68;78.65;;;;;;;-3.66;65.35;101802.98;1814190;78;20973;-69
2021/11/16 22:16:25;;;;;;;177.97;80.95;;;;;;;-3.67;65.42;101790.04;1810564;78;20933;-69
2021/11/16 22:18:43;;;;;;;155.55;77.10;;;;;;;-3.69;65.52;101791.33;1819656;78;22190;-67
2021/11/16 22:21:09;;;;;;;160.12;75.60;;;;;;;-3.71;65.57;101787.89;1820764;78;21012;-68
2021/11/16 22:23:36;;;;;;;139.47;66.50;;;;;;;-3.70;65.58;101788.75;1819542;78;21028;-67
2021/11/16 22:26:02;;;;;;;137.65;67.25;;;;;;;-3.69;65.56;101785.31;1819625;77;21574;-67
2021/11/16 22:28:30;;;;;;;143.30;69.30;;;;;;;-3.70;65.65;101790.91;1819822;78;21023;-67
2021/11/16 22:30:58;;;;;;;136.60;67.45;;;;;;;-3.69;65.77;101781.00;1811204;78;21818;-67
2021/11/16 22:33:27;;;;;;;146.68;72.12;;;;;;;-3.64;65.83;101785.77;1827491;78;20930;-67
2021/11/16 22:35:54;;;;;;;147.50;72.82;;;;;;;-3.60;65.75;101787.91;1817548;77;21035;-67
2021/11/16 22:38:21;;;;;;;151.32;74.72;;;;;;;-3.61;65.75;101784.47;1818555;78;20944;-68
2021/11/16 22:40:47;;;;;;;145.15;72.80;;;;;;;-3.60;65.73;101781.02;1825537;77;21497;-67
2021/11/16 22:43:13;;;;;;;147.02;74.10;;;;;;;-3.58;65.65;101775.42;1800036;78;21789;-68
2021/11/16 22:45:40;;;;;;;154.90;76.95;;;;;;;-3.59;65.56;101774.99;1824769;78;21012;-66
2021/11/16 22:48:07;;;;;;;156.80;79.10;;;;;;;-3.60;65.46;101768.54;1828378;78;21016;-67
2021/11/16 22:50:36;;;;;;;170.77;85.47;;;;;;;-3.65;65.41;101769.84;1813697;78;20983;-67
2021/11/16 22:53:03;;;;;;;165.93;81.37;;;;;;;-3.70;65.37;101759.06;1799615;78;20948;-68
2021/11/16 22:55:29;;;;;;;171.95;84.20;;;;;;;-3.74;65.43;101763.38;1831506;77;21825;-67
2021/11/16 22:57:56;;;;;;;209.65;98.85;;;;;;;-3.75;65.40;101759.07;1828355;77;21499;-67
